sensor_id;sensor_type;location;lat;lon;timestamp;temperature;humidity
25512;DHT22;13414;44.534;18.700;2022-07-09T00:02:10;18.30;99.90
25512;DHT22;13414;44.534;18.700;2022-07-09T00:04:37;18.30;99.90
25512;DHT22;13414;44.534;18.700;2022-07-09T00:07:04;18.30;99.90
25512;DHT22;13414;44.534;18.700;2022-07-09T00:09:31;18.30;99.90
25512;DHT22;13414;44.534;18.700;2022-07-09T00:11:59;18.20;99.90
25512;DHT22;13414;44.534;18.700;2022-07-09T00:14:26;18.20;99.90
25512;DHT22;13414;44.534;18.700;2022-07-09T00:16:56;18.20;99.90
25512;DHT22;13414;44.534;18.700;2022-07-09T00:19:24;18.20;99.90
25512;DHT22;13414;44.534;18.700;2022-07-09T00:21:51;18.10;99.90
25512;DHT22;13414;44.534;18.700;2022-07-09T00:24:18;18.10;99.90
25512;DHT22;13414;44.534;18.700;2022-07-09T00:26:45;18.10;99.90
25512;DHT22;13414;44.534;18.700;2022-07-09T00:29:13;18.10;99.90
25512;DHT22;13414;44.534;18.700;2022-07-09T00:31:40;18.10;99.90
25512;DHT22;13414;44.534;18.700;2022-07-09T00:34:08;18.10;99.90
25512;DHT22;13414;44.534;18.700;2022-07-09T00:36:36;18.20;99.90
25512;DHT22;13414;44.534;18.700;2022-07-09T00:39:03;18.20;99.90
25512;DHT22;13414;44.534;18.700;2022-07-09T00:41:31;18.20;99.90
25512;DHT22;13414;44.534;18.700;2022-07-09T00:43:58;18.20;99.90
25512;DHT22;13414;44.534;18.700;2022-07-09T00:46:25;18.20;99.90
25512;DHT22;13414;44.534;18.700;2022-07-09T00:48:52;18.20;99.90
25512;DHT22;13414;44.534;18.700;2022-07-09T00:51:21;18.20;99.90
25512;DHT22;13414;44.534;18.700;2022-07-09T00:53:50;18.20;99.90
25512;DHT22;13414;44.534;18.700;2022-07-09T00:56:17;18.20;99.90
25512;DHT22;13414;44.534;18.700;2022-07-09T00:58:45;18.20;99.90
25512;DHT22;13414;44.534;18.700;2022-07-09T01:01:13;18.20;99.90
25512;DHT22;13414;44.534;18.700;2022-07-09T01:03:40;18.20;99.90
25512;DHT22;13414;44.534;18.700;2022-07-09T01:06:07;18.20;99.90
25512;DHT22;13414;44.534;18.700;2022-07-09T01:08:36;18.20;99.90
25512;DHT22;13414;44.534;18.700;2022-07-09T01:11:04;18.20;99.90
25512;DHT22;13414;44.534;18.700;2022-07-09T01:13:31;18.10;99.90
25512;DHT22;13414;44.534;18.700;2022-07-09T01:15:59;18.20;99.90
25512;DHT22;13414;44.534;18.700;2022-07-09T01:18:26;18.10;99.90
25512;DHT22;13414;44.534;18.700;2022-07-09T01:20:55;18.10;99.90
25512;DHT22;13414;44.534;18.700;2022-07-09T01:23:22;18.10;99.90
25512;DHT22;13414;44.534;18.700;2022-07-09T01:25:50;18.10;99.90
25512;DHT22;13414;44.534;18.700;2022-07-09T01:28:17;18.10;99.90
25512;DHT22;13414;44.534;18.700;2022-07-09T01:30:45;18.10;99.90
25512;DHT22;13414;44.534;18.700;2022-07-09T01:33:13;18.10;99.90
25512;DHT22;13414;44.534;18.700;2022-07-09T01:35:41;18.10;99.90
25512;DHT22;13414;44.534;18.700;2022-07-09T01:38:09;18.10;99.90
25512;DHT22;13414;44.534;18.700;2022-07-09T01:40:37;18.00;99.90
25512;DHT22;13414;44.534;18.700;2022-07-09T01:43:04;18.10;99.90
25512;DHT22;13414;44.534;18.700;2022-07-09T01:45:32;18.10;99.90
25512;DHT22;13414;44.534;18.700;2022-07-09T01:47:59;18.10;99.90
25512;DHT22;13414;44.534;18.700;2022-07-09T01:50:27;18.00;99.90
25512;DHT22;13414;44.534;18.700;2022-07-09T01:52:54;18.00;99.90
25512;DHT22;13414;44.534;18.700;2022-07-09T01:55:22;18.00;99.90
25512;DHT22;13414;44.534;18.700;2022-07-09T01:57:50;18.00;99.90
25512;DHT22;13414;44.534;18.700;2022-07-09T02:00:17;17.90;99.90
25512;DHT22;13414;44.534;18.700;2022-07-09T02:02:45;17.70;99.90
25512;DHT22;13414;44.534;18.700;2022-07-09T02:05:12;17.70;99.90
25512;DHT22;13414;44.534;18.700;2022-07-09T02:07:40;17.60;99.90
25512;DHT22;13414;44.534;18.700;2022-07-09T02:10:08;17.50;99.90
25512;DHT22;13414;44.534;18.700;2022-07-09T02:12:36;17.50;99.90
25512;DHT22;13414;44.534;18.700;2022-07-09T02:15:05;17.40;99.90
25512;DHT22;13414;44.534;18.700;2022-07-09T02:17:32;17.40;99.90
25512;DHT22;13414;44.534;18.700;2022-07-09T02:20:00;17.40;99.90
25512;DHT22;13414;44.534;18.700;2022-07-09T02:22:27;17.30;99.90
25512;DHT22;13414;44.534;18.700;2022-07-09T02:24:54;17.30;99.90
25512;DHT22;13414;44.534;18.700;2022-07-09T02:27:22;17.30;99.90
25512;DHT22;13414;44.534;18.700;2022-07-09T02:29:50;17.20;99.90
25512;DHT22;13414;44.534;18.700;2022-07-09T02:32:17;17.10;99.90
25512;DHT22;13414;44.534;18.700;2022-07-09T02:34:45;17.10;99.90
25512;DHT22;13414;44.534;18.700;2022-07-09T02:37:12;17.10;99.90
25512;DHT22;13414;44.534;18.700;2022-07-09T02:39:39;17.10;99.90
25512;DHT22;13414;44.534;18.700;2022-07-09T02:42:06;17.00;99.90
25512;DHT22;13414;44.534;18.700;2022-07-09T02:44:34;17.00;99.90
25512;DHT22;13414;44.534;18.700;2022-07-09T02:47:03;17.00;99.90
25512;DHT22;13414;44.534;18.700;2022-07-09T02:49:30;16.90;99.90
25512;DHT22;13414;44.534;18.700;2022-07-09T02:51:57;17.00;99.90
25512;DHT22;13414;44.534;18.700;2022-07-09T02:54:25;17.00;99.90
25512;DHT22;13414;44.534;18.700;2022-07-09T02:56:52;17.00;99.90
25512;DHT22;13414;44.534;18.700;2022-07-09T02:59:20;16.90;99.90
25512;DHT22;13414;44.534;18.700;2022-07-09T03:01:47;16.90;99.90
25512;DHT22;13414;44.534;18.700;2022-07-09T03:04:16;16.90;99.90
25512;DHT22;13414;44.534;18.700;2022-07-09T03:06:43;16.90;99.90
25512;DHT22;13414;44.534;18.700;2022-07-09T03:09:10;17.00;99.90
25512;DHT22;13414;44.534;18.700;2022-07-09T03:11:38;17.00;99.90
25512;DHT22;13414;44.534;18.700;2022-07-09T03:14:06;17.00;99.90
25512;DHT22;13414;44.534;18.700;2022-07-09T03:16:34;17.00;99.90
25512;DHT22;13414;44.534;18.700;2022-07-09T03:19:01;17.00;99.90
25512;DHT22;13414;44.534;18.700;2022-07-09T03:21:30;16.90;99.90
25512;DHT22;13414;44.534;18.700;2022-07-09T03:23:57;17.00;99.90
25512;DHT22;13414;44.534;18.700;2022-07-09T03:26:24;17.00;99.90
25512;DHT22;13414;44.534;18.700;2022-07-09T03:28:51;17.00;99.90
25512;DHT22;13414;44.534;18.700;2022-07-09T03:31:19;17.00;99.90
25512;DHT22;13414;44.534;18.700;2022-07-09T03:33:46;16.90;99.90
25512;DHT22;13414;44.534;18.700;2022-07-09T03:36:13;16.90;99.90
25512;DHT22;13414;44.534;18.700;2022-07-09T03:38:42;16.90;99.90
25512;DHT22;13414;44.534;18.700;2022-07-09T03:41:09;16.90;99.90
25512;DHT22;13414;44.534;18.700;2022-07-09T03:43:37;16.90;99.90
25512;DHT22;13414;44.534;18.700;2022-07-09T03:46:04;16.90;99.90
25512;DHT22;13414;44.534;18.700;2022-07-09T03:48:31;16.90;99.90
25512;DHT22;13414;44.534;18.700;2022-07-09T03:50:58;16.90;99.90
25512;DHT22;13414;44.534;18.700;2022-07-09T03:53:26;17.00;99.90
25512;DHT22;13414;44.534;18.700;2022-07-09T03:55:55;17.00;99.90
25512;DHT22;13414;44.534;18.700;2022-07-09T03:58:22;16.90;99.90
25512;DHT22;13414;44.534;18.700;2022-07-09T04:00:50;16.90;99.90
25512;DHT22;13414;44.534;18.700;2022-07-09T04:03:18;16.90;99.90
25512;DHT22;13414;44.534;18.700;2022-07-09T04:05:45;16.90;99.90
25512;DHT22;13414;44.534;18.700;2022-07-09T04:08:13;16.90;99.90
25512;DHT22;13414;44.534;18.700;2022-07-09T04:10:41;16.90;99.90
25512;DHT22;13414;44.534;18.700;2022-07-09T04:13:09;16.90;99.90
25512;DHT22;13414;44.534;18.700;2022-07-09T04:15:36;16.90;99.90
25512;DHT22;13414;44.534;18.700;2022-07-09T04:18:04;16.90;99.90
25512;DHT22;13414;44.534;18.700;2022-07-09T04:20:31;16.90;99.90
25512;DHT22;13414;44.534;18.700;2022-07-09T04:22:58;16.90;99.90
25512;DHT22;13414;44.534;18.700;2022-07-09T04:25:25;16.80;99.90
25512;DHT22;13414;44.534;18.700;2022-07-09T04:27:53;16.80;99.90
25512;DHT22;13414;44.534;18.700;2022-07-09T04:30:21;16.80;99.90
25512;DHT22;13414;44.534;18.700;2022-07-09T04:32:48;16.80;99.90
25512;DHT22;13414;44.534;18.700;2022-07-09T04:35:16;16.80;99.90
25512;DHT22;13414;44.534;18.700;2022-07-09T04:37:43;16.80;99.90
25512;DHT22;13414;44.534;18.700;2022-07-09T04:40:12;16.90;99.90
25512;DHT22;13414;44.534;18.700;2022-07-09T04:42:39;16.80;99.90
25512;DHT22;13414;44.534;18.700;2022-07-09T04:45:07;16.90;99.90
25512;DHT22;13414;44.534;18.700;2022-07-09T04:47:36;16.90;99.90
25512;DHT22;13414;44.534;18.700;2022-07-09T04:50:03;16.90;99.90
25512;DHT22;13414;44.534;18.700;2022-07-09T04:52:31;16.90;99.90
25512;DHT22;13414;44.534;18.700;2022-07-09T04:54:58;16.90;99.90
25512;DHT22;13414;44.534;18.700;2022-07-09T04:57:25;17.00;99.90
25512;DHT22;13414;44.534;18.700;2022-07-09T04:59:53;17.00;99.90
25512;DHT22;13414;44.534;18.700;2022-07-09T05:02:24;17.10;99.90
25512;DHT22;13414;44.534;18.700;2022-07-09T05:04:52;17.10;99.90
25512;DHT22;13414;44.534;18.700;2022-07-09T05:07:20;17.10;99.90
25512;DHT22;13414;44.534;18.700;2022-07-09T05:09:47;17.20;99.90
25512;DHT22;13414;44.534;18.700;2022-07-09T05:12:14;17.20;99.90
25512;DHT22;13414;44.534;18.700;2022-07-09T05:14:42;17.30;99.90
25512;DHT22;13414;44.534;18.700;2022-07-09T05:17:09;17.30;99.90
25512;DHT22;13414;44.534;18.700;2022-07-09T05:19:36;17.40;99.90
25512;DHT22;13414;44.534;18.700;2022-07-09T05:22:05;17.40;99.90
25512;DHT22;13414;44.534;18.700;2022-07-09T05:24:33;17.40;99.90
25512;DHT22;13414;44.534;18.700;2022-07-09T05:27:00;17.40;99.90
25512;DHT22;13414;44.534;18.700;2022-07-09T05:29:27;17.40;99.90
25512;DHT22;13414;44.534;18.700;2022-07-09T05:31:55;17.50;99.90
25512;DHT22;13414;44.534;18.700;2022-07-09T05:34:23;17.50;99.90
25512;DHT22;13414;44.534;18.700;2022-07-09T05:36:50;17.60;99.90
25512;DHT22;13414;44.534;18.700;2022-07-09T05:39:20;17.70;99.90
25512;DHT22;13414;44.534;18.700;2022-07-09T05:41:48;17.80;99.90
25512;DHT22;13414;44.534;18.700;2022-07-09T05:44:15;17.90;99.90
25512;DHT22;13414;44.534;18.700;2022-07-09T05:46:43;18.10;99.90
25512;DHT22;13414;44.534;18.700;2022-07-09T05:49:10;18.30;99.90
25512;DHT22;13414;44.534;18.700;2022-07-09T05:51:37;18.70;99.90
25512;DHT22;13414;44.534;18.700;2022-07-09T05:54:04;19.00;99.90
25512;DHT22;13414;44.534;18.700;2022-07-09T05:56:33;19.10;99.90
25512;DHT22;13414;44.534;18.700;2022-07-09T05:59:02;19.40;99.90
25512;DHT22;13414;44.534;18.700;2022-07-09T06:01:29;19.70;99.90
25512;DHT22;13414;44.534;18.700;2022-07-09T06:03:58;20.00;99.90
25512;DHT22;13414;44.534;18.700;2022-07-09T06:06:25;20.40;99.90
25512;DHT22;13414;44.534;18.700;2022-07-09T06:08:52;20.50;99.90
25512;DHT22;13414;44.534;18.700;2022-07-09T06:11:19;20.70;99.90
25512;DHT22;13414;44.534;18.700;2022-07-09T06:13:48;20.60;99.90
25512;DHT22;13414;44.534;18.700;2022-07-09T06:16:15;20.60;99.90
25512;DHT22;13414;44.534;18.700;2022-07-09T06:18:43;20.20;99.90
25512;DHT22;13414;44.534;18.700;2022-07-09T06:21:10;20.40;99.90
25512;DHT22;13414;44.534;18.700;2022-07-09T06:23:37;20.30;99.90
25512;DHT22;13414;44.534;18.700;2022-07-09T06:26:04;20.30;99.90
25512;DHT22;13414;44.534;18.700;2022-07-09T06:28:32;20.10;99.90
25512;DHT22;13414;44.534;18.700;2022-07-09T06:31:03;20.10;99.90
25512;DHT22;13414;44.534;18.700;2022-07-09T06:33:31;19.90;99.90
25512;DHT22;13414;44.534;18.700;2022-07-09T06:35:58;19.80;99.90
25512;DHT22;13414;44.534;18.700;2022-07-09T06:38:28;19.80;99.90
25512;DHT22;13414;44.534;18.700;2022-07-09T06:40:56;19.70;99.90
25512;DHT22;13414;44.534;18.700;2022-07-09T06:43:24;19.40;99.90
25512;DHT22;13414;44.534;18.700;2022-07-09T06:45:53;19.40;99.90
25512;DHT22;13414;44.534;18.700;2022-07-09T06:48:23;19.30;99.90
25512;DHT22;13414;44.534;18.700;2022-07-09T06:50:50;19.40;99.90
25512;DHT22;13414;44.534;18.700;2022-07-09T06:53:18;19.40;99.90
25512;DHT22;13414;44.534;18.700;2022-07-09T06:55:45;19.30;99.90
25512;DHT22;13414;44.534;18.700;2022-07-09T06:58:12;19.30;99.90
25512;DHT22;13414;44.534;18.700;2022-07-09T07:00:39;19.40;99.90
25512;DHT22;13414;44.534;18.700;2022-07-09T07:03:07;19.30;99.90
25512;DHT22;13414;44.534;18.700;2022-07-09T07:05:35;19.30;99.90
25512;DHT22;13414;44.534;18.700;2022-07-09T07:08:03;19.10;99.90
25512;DHT22;13414;44.534;18.700;2022-07-09T07:10:31;19.00;99.90
25512;DHT22;13414;44.534;18.700;2022-07-09T07:12:58;18.90;99.90
25512;DHT22;13414;44.534;18.700;2022-07-09T07:15:25;18.90;99.90
25512;DHT22;13414;44.534;18.700;2022-07-09T07:17:52;18.90;99.90
25512;DHT22;13414;44.534;18.700;2022-07-09T07:20:20;19.10;99.90
25512;DHT22;13414;44.534;18.700;2022-07-09T07:22:52;19.20;99.90
25512;DHT22;13414;44.534;18.700;2022-07-09T07:25:19;19.20;99.90
25512;DHT22;13414;44.534;18.700;2022-07-09T07:27:46;19.40;99.90
25512;DHT22;13414;44.534;18.700;2022-07-09T07:30:14;19.60;99.90
25512;DHT22;13414;44.534;18.700;2022-07-09T07:32:41;19.70;99.90
25512;DHT22;13414;44.534;18.700;2022-07-09T07:35:08;19.90;99.90
25512;DHT22;13414;44.534;18.700;2022-07-09T07:37:36;20.00;99.90
25512;DHT22;13414;44.534;18.700;2022-07-09T07:40:06;20.20;99.90
25512;DHT22;13414;44.534;18.700;2022-07-09T07:42:33;20.20;99.90
25512;DHT22;13414;44.534;18.700;2022-07-09T07:45:00;20.30;99.90
25512;DHT22;13414;44.534;18.700;2022-07-09T07:47:28;20.30;99.90
25512;DHT22;13414;44.534;18.700;2022-07-09T07:49:55;20.60;99.90
25512;DHT22;13414;44.534;18.700;2022-07-09T07:52:22;20.70;99.90
25512;DHT22;13414;44.534;18.700;2022-07-09T07:54:49;21.00;99.90
25512;DHT22;13414;44.534;18.700;2022-07-09T07:57:20;21.10;99.90
25512;DHT22;13414;44.534;18.700;2022-07-09T07:59:47;21.10;99.90
25512;DHT22;13414;44.534;18.700;2022-07-09T08:02:14;21.40;99.90
25512;DHT22;13414;44.534;18.700;2022-07-09T08:04:42;21.40;99.90
25512;DHT22;13414;44.534;18.700;2022-07-09T08:07:09;21.70;99.90
25512;DHT22;13414;44.534;18.700;2022-07-09T08:09:37;22.00;99.90
25512;DHT22;13414;44.534;18.700;2022-07-09T08:12:05;22.10;99.90
25512;DHT22;13414;44.534;18.700;2022-07-09T08:14:33;22.40;99.90
25512;DHT22;13414;44.534;18.700;2022-07-09T08:17:01;22.70;99.90
25512;DHT22;13414;44.534;18.700;2022-07-09T08:19:28;22.60;99.90
25512;DHT22;13414;44.534;18.700;2022-07-09T08:21:55;22.20;99.90
25512;DHT22;13414;44.534;18.700;2022-07-09T08:24:22;22.20;99.90
25512;DHT22;13414;44.534;18.700;2022-07-09T08:26:50;22.00;99.90
25512;DHT22;13414;44.534;18.700;2022-07-09T08:29:17;21.80;99.90
25512;DHT22;13414;44.534;18.700;2022-07-09T08:31:46;21.80;99.90
25512;DHT22;13414;44.534;18.700;2022-07-09T08:34:15;21.60;99.90
25512;DHT22;13414;44.534;18.700;2022-07-09T08:36:42;21.60;99.90
25512;DHT22;13414;44.534;18.700;2022-07-09T08:39:10;21.40;99.90
25512;DHT22;13414;44.534;18.700;2022-07-09T08:41:37;21.60;99.90
25512;DHT22;13414;44.534;18.700;2022-07-09T08:44:05;21.70;99.90
25512;DHT22;13414;44.534;18.700;2022-07-09T08:46:37;21.60;99.90
25512;DHT22;13414;44.534;18.700;2022-07-09T08:49:07;21.70;99.90
25512;DHT22;13414;44.534;18.700;2022-07-09T08:51:35;21.70;99.90
25512;DHT22;13414;44.534;18.700;2022-07-09T08:54:03;21.80;99.90
25512;DHT22;13414;44.534;18.700;2022-07-09T08:56:30;22.00;99.90
25512;DHT22;13414;44.534;18.700;2022-07-09T08:58:57;22.10;99.90
25512;DHT22;13414;44.534;18.700;2022-07-09T09:01:25;22.40;99.90
25512;DHT22;13414;44.534;18.700;2022-07-09T09:03:53;22.60;99.90
25512;DHT22;13414;44.534;18.700;2022-07-09T09:06:22;22.80;99.90
25512;DHT22;13414;44.534;18.700;2022-07-09T09:08:53;22.80;99.90
25512;DHT22;13414;44.534;18.700;2022-07-09T09:11:22;22.90;99.90
25512;DHT22;13414;44.534;18.700;2022-07-09T09:13:50;22.80;99.90
25512;DHT22;13414;44.534;18.700;2022-07-09T09:16:20;22.50;99.90
25512;DHT22;13414;44.534;18.700;2022-07-09T09:18:49;22.40;99.90
25512;DHT22;13414;44.534;18.700;2022-07-09T09:21:23;22.30;99.90
25512;DHT22;13414;44.534;18.700;2022-07-09T09:23:51;22.30;99.90
25512;DHT22;13414;44.534;18.700;2022-07-09T09:26:20;22.30;99.90
25512;DHT22;13414;44.534;18.700;2022-07-09T09:28:50;22.30;99.90
25512;DHT22;13414;44.534;18.700;2022-07-09T09:31:20;22.30;99.90
25512;DHT22;13414;44.534;18.700;2022-07-09T09:33:47;22.60;99.90
25512;DHT22;13414;44.534;18.700;2022-07-09T09:36:33;23.00;99.90
25512;DHT22;13414;44.534;18.700;2022-07-09T09:39:14;23.40;99.90
25512;DHT22;13414;44.534;18.700;2022-07-09T09:41:44;23.60;99.90
25512;DHT22;13414;44.534;18.700;2022-07-09T09:44:13;23.30;99.90
25512;DHT22;13414;44.534;18.700;2022-07-09T09:46:41;22.80;99.90
25512;DHT22;13414;44.534;18.700;2022-07-09T09:49:10;22.10;99.90
25512;DHT22;13414;44.534;18.700;2022-07-09T09:51:47;21.80;99.90
25512;DHT22;13414;44.534;18.700;2022-07-09T09:54:17;21.80;99.90
25512;DHT22;13414;44.534;18.700;2022-07-09T09:56:45;21.90;99.90
25512;DHT22;13414;44.534;18.700;2022-07-09T09:59:13;22.20;99.90
25512;DHT22;13414;44.534;18.700;2022-07-09T10:01:42;22.50;99.90
25512;DHT22;13414;44.534;18.700;2022-07-09T10:04:11;22.90;99.90
25512;DHT22;13414;44.534;18.700;2022-07-09T10:06:39;23.50;99.90
25512;DHT22;13414;44.534;18.700;2022-07-09T10:09:11;23.70;99.90
25512;DHT22;13414;44.534;18.700;2022-07-09T10:11:43;23.80;99.90
25512;DHT22;13414;44.534;18.700;2022-07-09T10:14:28;24.10;99.90
25512;DHT22;13414;44.534;18.700;2022-07-09T10:16:56;24.40;99.90
25512;DHT22;13414;44.534;18.700;2022-07-09T10:19:35;24.30;99.90
25512;DHT22;13414;44.534;18.700;2022-07-09T10:22:03;23.90;99.90
25512;DHT22;13414;44.534;18.700;2022-07-09T10:24:33;23.90;99.90
25512;DHT22;13414;44.534;18.700;2022-07-09T10:27:05;23.90;99.90
25512;DHT22;13414;44.534;18.700;2022-07-09T10:29:34;23.50;99.90
25512;DHT22;13414;44.534;18.700;2022-07-09T10:32:03;23.10;99.90
25512;DHT22;13414;44.534;18.700;2022-07-09T10:34:43;23.20;99.90
25512;DHT22;13414;44.534;18.700;2022-07-09T10:37:13;23.40;99.90
25512;DHT22;13414;44.534;18.700;2022-07-09T10:39:52;23.50;99.90
25512;DHT22;13414;44.534;18.700;2022-07-09T10:42:21;23.50;99.90
25512;DHT22;13414;44.534;18.700;2022-07-09T10:44:49;23.60;99.90
25512;DHT22;13414;44.534;18.700;2022-07-09T10:47:17;24.00;99.90
25512;DHT22;13414;44.534;18.700;2022-07-09T10:49:44;24.40;99.90
25512;DHT22;13414;44.534;18.700;2022-07-09T10:52:12;24.40;99.90
25512;DHT22;13414;44.534;18.700;2022-07-09T10:54:47;24.40;99.90
25512;DHT22;13414;44.534;18.700;2022-07-09T10:57:15;24.30;99.90
25512;DHT22;13414;44.534;18.700;2022-07-09T10:59:46;24.50;99.90
25512;DHT22;13414;44.534;18.700;2022-07-09T11:02:18;24.70;99.90
25512;DHT22;13414;44.534;18.700;2022-07-09T11:04:48;24.80;99.90
25512;DHT22;13414;44.534;18.700;2022-07-09T11:07:21;24.70;99.90
25512;DHT22;13414;44.534;18.700;2022-07-09T11:09:51;24.30;99.90
25512;DHT22;13414;44.534;18.700;2022-07-09T11:12:19;24.50;99.90
25512;DHT22;13414;44.534;18.700;2022-07-09T11:14:47;25.10;99.90
25512;DHT22;13414;44.534;18.700;2022-07-09T11:17:16;25.40;99.90
25512;DHT22;13414;44.534;18.700;2022-07-09T11:19:43;25.50;99.90
25512;DHT22;13414;44.534;18.700;2022-07-09T11:22:10;25.70;99.90
25512;DHT22;13414;44.534;18.700;2022-07-09T11:24:38;26.10;99.90
25512;DHT22;13414;44.534;18.700;2022-07-09T11:27:08;25.90;99.90
25512;DHT22;13414;44.534;18.700;2022-07-09T11:29:37;25.90;99.90
25512;DHT22;13414;44.534;18.700;2022-07-09T11:32:05;25.80;99.90
25512;DHT22;13414;44.534;18.700;2022-07-09T11:34:32;25.90;99.90
25512;DHT22;13414;44.534;18.700;2022-07-09T11:36:59;26.10;99.90
25512;DHT22;13414;44.534;18.700;2022-07-09T11:39:28;26.20;99.90
25512;DHT22;13414;44.534;18.700;2022-07-09T11:41:57;26.10;99.90
25512;DHT22;13414;44.534;18.700;2022-07-09T11:44:27;25.90;99.90
25512;DHT22;13414;44.534;18.700;2022-07-09T11:47:08;25.90;99.90
25512;DHT22;13414;44.534;18.700;2022-07-09T11:49:37;25.60;99.90
25512;DHT22;13414;44.534;18.700;2022-07-09T11:52:15;25.00;99.90
25512;DHT22;13414;44.534;18.700;2022-07-09T11:54:57;24.50;99.90
25512;DHT22;13414;44.534;18.700;2022-07-09T11:57:25;24.10;99.90
25512;DHT22;13414;44.534;18.700;2022-07-09T11:59:53;24.20;99.90
25512;DHT22;13414;44.534;18.700;2022-07-09T12:02:25;24.40;99.90
25512;DHT22;13414;44.534;18.700;2022-07-09T12:04:53;24.30;99.90
25512;DHT22;13414;44.534;18.700;2022-07-09T12:07:20;24.30;99.90
25512;DHT22;13414;44.534;18.700;2022-07-09T12:09:57;24.20;99.90
25512;DHT22;13414;44.534;18.700;2022-07-09T12:12:26;24.50;99.90
25512;DHT22;13414;44.534;18.700;2022-07-09T12:14:54;24.70;99.90
25512;DHT22;13414;44.534;18.700;2022-07-09T12:17:26;24.50;99.90
25512;DHT22;13414;44.534;18.700;2022-07-09T12:19:54;24.20;99.90
25512;DHT22;13414;44.534;18.700;2022-07-09T12:22:22;24.40;99.90
25512;DHT22;13414;44.534;18.700;2022-07-09T12:24:50;24.20;99.90
25512;DHT22;13414;44.534;18.700;2022-07-09T12:27:18;24.40;99.90
25512;DHT22;13414;44.534;18.700;2022-07-09T12:29:46;24.80;99.90
25512;DHT22;13414;44.534;18.700;2022-07-09T12:32:15;25.10;99.90
25512;DHT22;13414;44.534;18.700;2022-07-09T12:34:42;25.10;99.90
25512;DHT22;13414;44.534;18.700;2022-07-09T12:37:10;24.80;99.90
25512;DHT22;13414;44.534;18.700;2022-07-09T12:39:37;24.80;99.90
25512;DHT22;13414;44.534;18.700;2022-07-09T12:42:05;24.70;99.90
25512;DHT22;13414;44.534;18.700;2022-07-09T12:44:32;24.80;99.90
25512;DHT22;13414;44.534;18.700;2022-07-09T12:46:59;24.90;99.90
25512;DHT22;13414;44.534;18.700;2022-07-09T12:49:28;25.00;99.90
25512;DHT22;13414;44.534;18.700;2022-07-09T12:51:55;25.20;99.90
25512;DHT22;13414;44.534;18.700;2022-07-09T12:54:22;25.00;99.90
25512;DHT22;13414;44.534;18.700;2022-07-09T12:56:50;25.00;99.90
25512;DHT22;13414;44.534;18.700;2022-07-09T12:59:17;24.70;99.90
25512;DHT22;13414;44.534;18.700;2022-07-09T13:01:44;24.80;99.90
25512;DHT22;13414;44.534;18.700;2022-07-09T13:04:12;25.00;99.90
25512;DHT22;13414;44.534;18.700;2022-07-09T13:06:41;24.80;99.90
25512;DHT22;13414;44.534;18.700;2022-07-09T13:09:09;25.10;99.90
25512;DHT22;13414;44.534;18.700;2022-07-09T13:11:38;25.50;99.90
25512;DHT22;13414;44.534;18.700;2022-07-09T13:14:06;25.80;99.90
25512;DHT22;13414;44.534;18.700;2022-07-09T13:16:35;25.90;99.90
25512;DHT22;13414;44.534;18.700;2022-07-09T13:19:02;25.90;99.90
25512;DHT22;13414;44.534;18.700;2022-07-09T13:21:30;25.80;99.90
25512;DHT22;13414;44.534;18.700;2022-07-09T13:23:59;25.70;99.90
25512;DHT22;13414;44.534;18.700;2022-07-09T13:26:26;25.50;99.90
25512;DHT22;13414;44.534;18.700;2022-07-09T13:28:54;25.60;99.90
25512;DHT22;13414;44.534;18.700;2022-07-09T13:31:21;25.50;99.90
25512;DHT22;13414;44.534;18.700;2022-07-09T13:33:49;25.70;99.90
25512;DHT22;13414;44.534;18.700;2022-07-09T13:36:17;25.70;99.90
25512;DHT22;13414;44.534;18.700;2022-07-09T13:38:44;25.70;99.90
25512;DHT22;13414;44.534;18.700;2022-07-09T13:41:13;25.90;99.90
25512;DHT22;13414;44.534;18.700;2022-07-09T13:43:42;26.10;99.90
25512;DHT22;13414;44.534;18.700;2022-07-09T13:46:11;25.90;99.90
25512;DHT22;13414;44.534;18.700;2022-07-09T13:48:39;25.50;99.90
25512;DHT22;13414;44.534;18.700;2022-07-09T13:51:06;25.20;99.90
25512;DHT22;13414;44.534;18.700;2022-07-09T13:53:33;25.10;99.90
25512;DHT22;13414;44.534;18.700;2022-07-09T13:56:00;25.20;99.90
25512;DHT22;13414;44.534;18.700;2022-07-09T13:58:29;25.10;99.90
25512;DHT22;13414;44.534;18.700;2022-07-09T14:00:56;25.00;99.90
25512;DHT22;13414;44.534;18.700;2022-07-09T14:03:24;24.70;99.90
25512;DHT22;13414;44.534;18.700;2022-07-09T14:05:51;24.70;99.90
25512;DHT22;13414;44.534;18.700;2022-07-09T14:08:18;25.00;99.90
25512;DHT22;13414;44.534;18.700;2022-07-09T14:10:48;25.20;99.90
25512;DHT22;13414;44.534;18.700;2022-07-09T14:13:17;25.60;99.90
25512;DHT22;13414;44.534;18.700;2022-07-09T14:15:46;25.80;99.90
25512;DHT22;13414;44.534;18.700;2022-07-09T14:18:13;26.00;99.90
25512;DHT22;13414;44.534;18.700;2022-07-09T14:20:41;26.10;99.90
25512;DHT22;13414;44.534;18.700;2022-07-09T14:23:08;26.20;99.90
25512;DHT22;13414;44.534;18.700;2022-07-09T14:25:35;25.90;99.90
25512;DHT22;13414;44.534;18.700;2022-07-09T14:28:02;25.80;99.90
25512;DHT22;13414;44.534;18.700;2022-07-09T14:30:30;25.50;99.90
25512;DHT22;13414;44.534;18.700;2022-07-09T14:32:59;25.20;99.90
25512;DHT22;13414;44.534;18.700;2022-07-09T14:35:27;24.70;99.90
25512;DHT22;13414;44.534;18.700;2022-07-09T14:37:55;24.50;99.90
25512;DHT22;13414;44.534;18.700;2022-07-09T14:40:22;24.30;99.90
25512;DHT22;13414;44.534;18.700;2022-07-09T14:42:49;24.10;99.90
25512;DHT22;13414;44.534;18.700;2022-07-09T14:45:17;23.90;99.90
25512;DHT22;13414;44.534;18.700;2022-07-09T14:47:45;23.90;99.90
25512;DHT22;13414;44.534;18.700;2022-07-09T14:50:13;23.90;99.90
25512;DHT22;13414;44.534;18.700;2022-07-09T14:52:43;24.00;99.90
25512;DHT22;13414;44.534;18.700;2022-07-09T14:55:11;23.90;99.90
25512;DHT22;13414;44.534;18.700;2022-07-09T14:57:38;24.00;99.90
25512;DHT22;13414;44.534;18.700;2022-07-09T15:00:06;24.10;99.90
25512;DHT22;13414;44.534;18.700;2022-07-09T15:02:34;24.30;99.90
25512;DHT22;13414;44.534;18.700;2022-07-09T15:05:01;24.50;99.90
25512;DHT22;13414;44.534;18.700;2022-07-09T15:07:30;24.60;99.90
25512;DHT22;13414;44.534;18.700;2022-07-09T15:09:57;24.60;99.90
25512;DHT22;13414;44.534;18.700;2022-07-09T15:12:24;24.70;99.90
25512;DHT22;13414;44.534;18.700;2022-07-09T15:14:51;24.90;99.90
25512;DHT22;13414;44.534;18.700;2022-07-09T15:17:19;25.10;99.90
25512;DHT22;13414;44.534;18.700;2022-07-09T15:19:46;25.20;99.90
25512;DHT22;13414;44.534;18.700;2022-07-09T15:22:13;25.40;99.90